Logo AVAMET
Benvolgut visitant, si us plau, ingressa Recuperar contrasenya

Inforatge Castelló de la Plana PortCastelló

Dades diàries. Acumulats / Últims 30 dies disponibles

Data Temperatura (°C) Humitat rel. (%) Pressió rel. (hPa) Vent (km/h) Precipitació
Mínima Mitjana Màxima Amplitud
tèrmica
Mínima Mitjana Màxima Mínima Mitjana Màxima Predom. Mitjana Ràfega
màxima
Total
(mm)
Índex-n
Mínima Mitjana Màxima Mínima Mitjana Màxima n
0 a 1
P0 max
mm 5'
Dades mensuals acumulades fins l'últim dia disponible
01/2020 1,6 5,4 10,1 9,8 11,3 14,6 19,4 17,8 39 82 98 1.014 1.027 1.034   8,9 90,1 52,2
Dades anuals acumulades fins l'últim dia disponible
2020 1,6 5,4 10,1 9,8 11,3 14,6 19,4 17,8 39 82 98 1.014 1.027 1.034   8,9 90,1 52,2
Últims 30 dies disponibles
22-01-2020 10,1     12,5     14,8 4,7 76 84 90 1.017 1.019 1.021 ESE 16,1 40,2 0,2
21-01-2020 7,8     11,3     14,5 6,7 89 95 98 1.014 1.018 1.022 NNE 32,0 82,1 22,6 0,67 1,90
20-01-2020 4,4     6,6     11,3 6,9 56 91 98 1.021 1.022 1.024 NNE 46,5 90,1 15,0 0,54 0,80
19-01-2020 6,3     9,7     12,8 6,5 51 82 97 1.015 1.018 1.022 NNE 23,3 75,6 14,2 0,42 0,60
18-01-2020 7,9     12,3     15,8 7,9 56 68 83 1.019 1.027 1.032 S 7,2 37,0 0,0
17-01-2020 5,9     11,7     19,4 13,5 39 72 93 1.025 1.028 1.032 NW 5,3 29,0 0,0
16-01-2020 4,3     9,7     16,7 12,4 63 83 94 1.026 1.027 1.029 NW 2,7 14,5 0,0
15-01-2020 2,8     7,8     13,3 10,5 67 84 93 1.023 1.025 1.027 NW 2,6 14,5 0,0
14-01-2020 2,1     7,2     14,3 12,2 66 83 93 1.021 1.022 1.024 NW 2,3 12,9 0,0
13-01-2020 1,6     7,5     12,7 11,1 50 77 93 1.022 1.025 1.030 WNW 2,9 14,5 0,0
12-01-2020 3,4     7,8     12,6 9,2 76 84 94 1.029 1.030 1.031 WNW 5,5 19,3 0,0
11-01-2020 4,6     10,2     15,9 11,3 47 67 88 1.028 1.030 1.032 WNW 4,2 16,1 0,0
10-01-2020 6,4     11,6     15,4 9,0 47 71 94 1.023 1.026 1.029 NW 11,3 54,7 0,0
09-01-2020 5,4     10,1     14,6 9,2 70 84 92 1.024 1.028 1.031 WNW 3,2 16,1 0,2
08-01-2020 5,2     10,2     16,4 11,2 67 87 96 1.028 1.030 1.032 NW 4,8 22,5 0,0
07-01-2020 5,4     9,4     14,1 8,7 72 86 94 1.029 1.030 1.032 NW 2,6 19,3 0,0
06-01-2020 5,0     8,9     14,9 9,9 72 86 93 1.028 1.029 1.031 NW 2,7 12,9 0,0
05-01-2020 4,0     9,6     16,0 12,0 64 79 91 1.027 1.029 1.031 NW 3,2 22,5 0,0
04-01-2020 4,7     9,8     16,5 11,8 53 81 95 1.031 1.032 1.034 WNW 4,7 22,5 0,0
03-01-2020 5,3     9,1     13,4 8,1 78 88 94 1.030 1.031 1.033 WNW 3,2 12,9 0,0
02-01-2020 7,9     11,3     14,3 6,4 72 83 90 1.030 1.032 1.033 WNW 4,0 17,7 0,0
01-01-2020 7,3     10,4     12,4 5,1 84 89 93 1.031 1.032 1.034 NW 4,8 17,7 0,0
31-12-2019 6,9     10,5     13,6 6,7 80 87 94 1.032 1.033 1.035 OSO 2,3 17,7 0,0
30-12-2019 7,0     11,4     15,6 8,6 65 80 91 1.032 1.033 1.035 WNW 3,7 19,3 0,0
29-12-2019 7,6     11,0     15,1 7,5 67 82 91 1.030 1.032 1.034 WNW 4,8 19,3 0,0
28-12-2019 4,1     9,3     14,7 10,6 73 88 95 1.029 1.030 1.032 WNW 2,3 17,7 0,0
27-12-2019 7,2     11,1     15,1 7,9 64 81 94 1.028 1.029 1.030 E 4,2 19,3 0,0
26-12-2019 8,3     12,5     17,8 9,5 71 85 96 1.022 1.025 1.030 NW 2,4 19,3 0,0
25-12-2019 8,9     12,6     17,4 8,5 65 86 96 1.023 1.024 1.026 E 2,6 16,1 0,0
24-12-2019 9,2     15,2     20,8 11,6 54 73 93 1.025 1.026 1.027 NW 3,5 22,5 0,0
Últims 13 mesos disponibles
12/2019 4,1 9,3 17,8 13,5 13,6 17,5 26,3 22,2 47 77 95 1.001 1.018 1.033 WNW 8,1 78,9 151,0
11/2019 5,6 11,6 19,6 15,7 14,9 19,8 27,6 22,0 42 59 85 996 1.009 1.018 SW 9,1 74,0 4,8
10/2019 10,9 15,7 21,0 19,8 17,3 23,8 28,3 17,4 51 75 90 1.006 1.016 1.022 NW 6,2 48,3 18,6
09/2019 14,6 19,9 22,3 23,5 23,4 26,6 30,9 16,3 0 72 89 0 950 1.026 SO 9,7 74,1 54,8
07/2019 20,2 21,9 23,3 26,1 27,3 29,3 32,6 12,4 54 75 86 1.006 1.015 1.022 SSO 7,3 48,3 13,0
06/2019 12,3 17,7 22,0 21,8 21,3 25,0 33,1 20,8 52 74 87 1.008 1.016 1.022 SSE 8,9 59,6 0,0
05/2019 8,8 14,0 18,1 17,9 17,3 21,5 28,4 19,6 54 74 86 1.005 1.016 1.025 S 8,0 53,7 13,0
04/2019 7,6 11,3 15,3 15,3 14,9 18,8 24,7 17,1 49 70 98 999 1.013 1.025 SO 10,5 70,9 21,8
03/2019 6,0 8,9 10,9 13,7 14,8 17,7 20,4 14,4 51 67 86 1.008 1.023 1.030 SO 8,2 58,0 6,2
02/2019 2,7 6,5 11,8 11,6 12,9 16,3 20,6 17,9 30 72 94 992 1.023 1.033 SO 6,6 95,0 1,0
01/2019 3,0 5,6 9,7 10,7 11,9 16,0 22,1 19,1 41 64 86 1.000 1.018 1.030 SO 7,2 90,7 4,4
12/2018 4,0 7,9 11,5 12,5 14,3 17,3 22,1 18,1 55 78 91 1.007 1.025 1.030 OSO 4,1 69,3 8,2
11/2018 7,2 11,2 16,5 14,8 15,9 19,0 22,6 15,4 57 76 90 1.001 1.015 1.024 OSO 8,1 50,0 80,2
Tots els anys disponibles
2019 2,7 13,5 25,2 17,8 11,9 21,6 33,1 30,4 0 71 98 0 1.010 1.033 SO 8,1 95,0 288,6
Temperatura (°C)
Humitat relativa (%)
Velocitat del vent i ràfega màxima (km/h)
Direcció del vent (°)
Pressió (hPa)
Precipitació (mm)
Nota sobre les dades: s'avisa a l'usuari de la provisionalitat i no oficialitat d'aquestes dades
Logo AVAMET blanc
Web allotjada a Sollutia
Llicència de Creative CommonsLa web d'AVAMET i els seus continguts estan subjectes a una llicència de
Reconeixement - No Comercial - Compartir igual
Últimes estacions: Xixona - Els Ameradors (Soci), Agres - El Tossal (Soci), Xàbia - Bevenguts (MeteoXàbia), Llíria (Aj. Soci/Inforatge), Orihuela - Lo Capitán, Cox & Guardamar del Segura - horta (Meteorihuela), l'Alcúdia - Carriona & el Real de Gandia (Inforatge), Benicàssim - les Vil·les (Soci),  l'Alfàs del Pi - l'Albir (Soci), - - -